Hundvaag 1 weather for Jan 1997
Month no. 115
Obs.
Da.
Temp. Dew Point Precip. Wind
Speed
Wind gusts Cloud cover Press. Humidity Wind dir. Sunny OPT
01.01.1997 -5,7   0,0     9       1  
02.01.1997 -4,9   0,0     10       1  
03.01.1997 -3,7   0,0     10       1  
04.01.1997 -2,7   0,0     7       1  
05.01.1997 -5,1   0,0     9       1  
06.01.1997 -2,7   0,0     10       1  
07.01.1997 -4,5   0,0     10       1  
08.01.1997 -0,3   0,3     2          
09.01.1997 -4,0   0,0     10       1  
10.01.1997 -0,1   0,3     1          
11.01.1997 1,1   3,0     0          
12.01.1997 1,5   2,0     0          
13.01.1997 6,4   17,0     0          
14.01.1997 3,9   0,0     0          
15.01.1997 6,6   0,0     0          
16.01.1997 2,0   1,0     10       1  
17.01.1997 2,2   0,0     9       1  
18.01.1997 6,1   2,0     5       1  
19.01.1997 5,6   3,0     0          
20.01.1997 -1,3   2,0     10       1  
21.01.1997 2,5   0,0     0          
22.01.1997 2,6   0,0     0          
23.01.1997 2,4   1,0     0          
24.01.1997 0,6   0,0     10       1  
25.01.1997 3,6   2,0     0          
26.01.1997 5,7   0,0     0          
27.01.1997 5,8   2,0     0          
28.01.1997 4,4   1,0     10       1  
29.01.1997 4,8   1,0     1          
30.01.1997 5,8   1,0     0          
31.01.1997 2,3   1,0     3          
Avrg/Sum 1,3   39,6     4,4       14